KFXY/FXY METAR and TAF weather

Enter ICAO airport designator
Station Type Date Time Source
KFXY METAR 2021/04/13 21:55 UTC NOAA

KFXY 132155Z AUTO 28020G25KT 10SM OVC046 05/M06 A3010 RMK AO2


Station Type Date Time Source
KFXY Decoded METAR 2021/04/13 21:55 UTC NOAA

Station name not available
Apr 13, 2021 - 05:55 PM EDT / 2021.04.13 2155 UTC
Wind: from the W (280 degrees) at 23 MPH (20 KT) gusting to 29 MPH (25 KT):0
Visibility: 10 mile(s):0
Sky conditions: overcast
Temperature: 41 F (5 C)
Dew Point: 21 F (-6 C)
Relative Humidity: 44%
Pressure (altimeter): 30.1 in. Hg (1019 hPa)
ob: KFXY 132155Z AUTO 28020G25KT 10SM OVC046 05/M06 A3010 RMK AO2
cycle: 22

Station Type Date Time Source
KFXY TAF UTC NOAA

Error!

Example: see airport list